createdAt,value
2023-04-17T00:00:39.484Z,8.48
2023-04-17T00:01:39.458Z,8.53
2023-04-17T00:02:39.647Z,8.49
2023-04-17T00:03:39.443Z,8.52
2023-04-17T00:04:39.467Z,8.46
2023-04-17T00:05:39.359Z,8.55
2023-04-17T00:06:39.271Z,8.52
2023-04-17T00:07:39.262Z,8.55
2023-04-17T00:08:39.201Z,8.55
2023-04-17T00:09:39.172Z,8.49
2023-04-17T00:10:39.218Z,8.44
2023-04-17T00:11:39.109Z,8.46
2023-04-17T00:12:39.078Z,8.53
2023-04-17T00:13:39.038Z,8.42
2023-04-17T00:14:38.997Z,8.38
2023-04-17T00:15:38.961Z,8.52
2023-04-17T00:16:39.026Z,8.53
2023-04-17T00:17:38.945Z,8.48
2023-04-17T00:18:38.866Z,8.51
2023-04-17T00:19:38.821Z,8.53
2023-04-17T00:20:38.779Z,8.41
2023-04-17T00:21:38.799Z,8.52
2023-04-17T00:22:38.729Z,8.48
2023-04-17T00:23:38.690Z,8.51
2023-04-17T00:24:38.667Z,8.45
2023-04-17T00:25:38.616Z,8.45
2023-04-17T00:26:38.572Z,8.45
2023-04-17T00:27:38.626Z,8.45
2023-04-17T00:28:38.545Z,8.49
2023-04-17T00:29:38.474Z,8.46
2023-04-17T00:30:38.429Z,8.37
2023-04-17T00:31:38.405Z,8.37
2023-04-17T00:32:38.456Z,8.31
2023-04-17T00:33:38.332Z,8.36
2023-04-17T00:34:38.353Z,8.34
2023-04-17T00:35:38.264Z,8.45
2023-04-17T00:36:38.243Z,8.33
2023-04-17T00:37:38.213Z,8.41
2023-04-17T00:38:38.150Z,8.38
2023-04-17T00:39:38.135Z,8.37
2023-04-17T00:40:38.142Z,8.33
2023-04-17T00:41:38.046Z,8.20
2023-04-17T00:42:38.068Z,8.31
2023-04-17T00:43:37.987Z,8.38
2023-04-17T00:44:37.964Z,8.33
2023-04-17T00:45:38.024Z,8.28
2023-04-17T00:46:37.877Z,8.34
2023-04-17T00:47:37.965Z,8.31
2023-04-17T00:48:37.822Z,8.30
2023-04-17T00:49:37.778Z,8.31
2023-04-17T00:50:37.746Z,8.30
2023-04-17T00:51:37.771Z,8.28
2023-04-17T00:52:37.668Z,8.33
2023-04-17T00:53:37.631Z,8.24
2023-04-17T00:54:37.622Z,8.28
2023-04-17T00:55:37.565Z,8.20
2023-04-17T00:56:37.593Z,8.24
2023-04-17T00:57:37.506Z,8.19
2023-04-17T00:58:37.456Z,8.24
2023-04-17T00:59:37.418Z,8.16
2023-04-17T01:00:37.395Z,8.27
2023-04-17T01:01:37.510Z,8.23
2023-04-17T01:02:37.416Z,8.27
2023-04-17T01:03:37.460Z,8.26
2023-04-17T01:04:37.245Z,8.23
2023-04-17T01:05:37.209Z,8.20
2023-04-17T01:06:37.182Z,8.20
2023-04-17T01:07:37.200Z,8.18
2023-04-17T01:08:37.107Z,8.20
2023-04-17T01:09:37.066Z,8.19
2023-04-17T01:10:37.043Z,8.20
2023-04-17T01:11:37.003Z,8.05
2023-04-17T01:12:37.044Z,8.08
2023-04-17T01:13:36.933Z,8.16
2023-04-17T01:14:36.903Z,8.18
2023-04-17T01:15:36.861Z,8.20
2023-04-17T01:16:36.824Z,8.19
2023-04-17T01:17:36.820Z,8.18
2023-04-17T01:18:36.818Z,8.15
2023-04-17T01:19:36.722Z,8.19
2023-04-17T01:20:36.685Z,8.19
2023-04-17T01:21:36.649Z,8.08
2023-04-17T01:22:36.611Z,8.06
2023-04-17T01:23:36.580Z,8.12
2023-04-17T01:24:36.620Z,8.09
2023-04-17T01:25:36.504Z,8.20
2023-04-17T01:26:36.467Z,8.12
2023-04-17T01:27:36.441Z,8.10
2023-04-17T01:28:36.427Z,8.06
2023-04-17T01:29:36.375Z,8.12
2023-04-17T01:30:36.432Z,8.08
2023-04-17T01:31:36.291Z,8.12
2023-04-17T01:32:36.334Z,8.19
2023-04-17T01:33:36.226Z,8.10
2023-04-17T01:34:37.637Z,8.16
2023-04-17T01:35:36.161Z,8.10
2023-04-17T01:36:36.180Z,8.08
2023-04-17T01:37:36.130Z,8.06
2023-04-17T01:38:36.044Z,8.08
2023-04-17T01:39:36.018Z,8.01
2023-04-17T01:40:36.002Z,7.95
2023-04-17T01:41:35.951Z,7.97
2023-04-17T01:42:35.979Z,7.97
2023-04-17T01:43:35.878Z,7.97
2023-04-17T01:44:35.847Z,7.95
2023-04-17T01:45:35.814Z,7.93
2023-04-17T01:46:35.815Z,7.94
2023-04-17T01:47:35.750Z,7.95
2023-04-17T01:48:35.756Z,7.95
2023-04-17T01:49:35.660Z,7.83
2023-04-17T01:50:35.637Z,7.85
2023-04-17T01:51:35.604Z,7.82
2023-04-17T01:52:35.567Z,7.82
2023-04-17T01:53:35.516Z,7.82
2023-04-17T01:54:35.561Z,7.80
2023-04-17T01:55:35.454Z,7.73
2023-04-17T01:56:35.430Z,7.77
2023-04-17T01:57:35.385Z,7.77
2023-04-17T01:58:35.352Z,7.70
2023-04-17T01:59:35.311Z,7.79
2023-04-17T02:00:35.346Z,7.70
2023-04-17T02:01:35.286Z,7.70
2023-04-17T02:02:35.272Z,7.73
2023-04-17T02:03:35.396Z,7.72
2023-04-17T02:04:35.160Z,7.72
2023-04-17T02:05:35.094Z,7.63
2023-04-17T02:06:35.136Z,7.70
2023-04-17T02:07:35.057Z,7.69
2023-04-17T02:08:35.015Z,7.66
2023-04-17T02:09:34.963Z,7.66
2023-04-17T02:10:34.927Z,7.67
2023-04-17T02:11:34.882Z,7.66
2023-04-17T02:12:34.916Z,7.61
2023-04-17T02:13:34.811Z,7.60
2023-04-17T02:14:34.788Z,7.58
2023-04-17T02:15:34.769Z,7.54
2023-04-17T02:16:34.761Z,7.54
2023-04-17T02:17:34.703Z,7.54
2023-04-17T02:18:34.707Z,7.56
2023-04-17T02:19:34.617Z,7.48
2023-04-17T02:20:34.579Z,7.50
2023-04-17T02:21:34.537Z,7.51
2023-04-17T02:22:34.556Z,7.43
2023-04-17T02:23:34.482Z,7.40
2023-04-17T02:24:34.501Z,7.43
2023-04-17T02:25:34.433Z,7.51
2023-04-17T02:26:35.120Z,7.47
2023-04-17T02:27:34.334Z,7.43
2023-04-17T02:28:34.298Z,7.47
2023-04-17T02:29:34.252Z,7.42
2023-04-17T02:30:34.279Z,7.39
2023-04-17T02:31:34.242Z,7.38
2023-04-17T02:32:34.216Z,7.36
2023-04-17T02:33:34.101Z,7.35
2023-04-17T02:34:34.070Z,7.36
2023-04-17T02:35:34.118Z,7.33
2023-04-17T02:36:34.010Z,7.25
2023-04-17T02:37:34.036Z,7.36
2023-04-17T02:38:33.932Z,7.28
2023-04-17T02:39:33.911Z,7.29
2023-04-17T02:40:33.860Z,7.25
2023-04-17T02:41:33.903Z,7.24
2023-04-17T02:42:33.851Z,7.29
2023-04-17T02:43:33.753Z,7.32
2023-04-17T02:44:33.730Z,7.25
2023-04-17T02:45:33.683Z,7.29
2023-04-17T02:46:33.673Z,7.31
2023-04-17T02:47:33.683Z,7.23
2023-04-17T02:48:33.640Z,7.24
2023-04-17T02:49:33.543Z,7.18
2023-04-17T02:50:33.517Z,7.21
2023-04-17T02:51:33.472Z,7.28
2023-04-17T02:52:33.435Z,7.21
2023-04-17T02:53:33.400Z,7.28
2023-04-17T02:54:33.419Z,7.31
2023-04-17T02:55:33.331Z,7.18
2023-04-17T02:56:33.300Z,7.24
2023-04-17T02:57:33.262Z,7.17
2023-04-17T02:58:33.219Z,7.20
2023-04-17T02:59:33.210Z,7.10
2023-04-17T03:00:33.270Z,7.17
2023-04-17T03:01:33.187Z,7.14
2023-04-17T03:02:33.137Z,7.28
2023-04-17T03:03:33.250Z,7.15
2023-04-17T03:04:33.008Z,7.21
2023-04-17T03:05:32.977Z,7.29
2023-04-17T03:06:32.992Z,7.17
2023-04-17T03:07:32.918Z,7.21
2023-04-17T03:08:33.194Z,7.28
2023-04-17T03:09:32.892Z,7.25
2023-04-17T03:10:32.801Z,7.28
2023-04-17T03:11:32.764Z,7.13
2023-04-17T03:12:32.736Z,7.18
2023-04-17T03:13:32.693Z,7.15
2023-04-17T03:14:32.712Z,7.15
2023-04-17T03:15:32.664Z,7.15
2023-04-17T03:16:32.665Z,7.15
2023-04-17T03:17:32.586Z,7.13
2023-04-17T03:18:32.521Z,7.17
2023-04-17T03:19:32.474Z,7.18
2023-04-17T03:20:32.515Z,7.17
2023-04-17T03:21:32.411Z,7.13
2023-04-17T03:22:32.374Z,7.21
2023-04-17T03:23:32.341Z,7.14
2023-04-17T03:24:32.316Z,7.13
2023-04-17T03:25:32.274Z,7.13
2023-04-17T03:26:32.284Z,7.17
2023-04-17T03:27:32.203Z,7.15
2023-04-17T03:28:32.164Z,7.20
2023-04-17T03:29:32.124Z,7.07
2023-04-17T03:30:32.088Z,7.13
2023-04-17T03:31:32.120Z,7.13
2023-04-17T03:32:32.056Z,7.13
2023-04-17T03:33:31.979Z,7.17
2023-04-17T03:34:31.955Z,7.13
2023-04-17T03:35:31.905Z,7.14
2023-04-17T03:36:31.936Z,7.11
2023-04-17T03:37:31.832Z,7.13
2023-04-17T03:38:31.881Z,7.14
2023-04-17T03:39:31.758Z,7.13
2023-04-17T03:40:33.579Z,7.06
2023-04-17T03:41:31.689Z,7.05
2023-04-17T03:42:31.712Z,7.10
2023-04-17T03:43:31.624Z,7.10
2023-04-17T03:44:31.606Z,7.07
2023-04-17T03:45:31.556Z,7.06
2023-04-17T03:46:31.522Z,7.11
2023-04-17T03:47:31.542Z,7.05
2023-04-17T03:48:31.566Z,7.07
2023-04-17T03:49:31.405Z,7.10
2023-04-17T03:50:31.371Z,7.06
2023-04-17T03:51:31.348Z,7.06
2023-04-17T03:52:31.310Z,6.96
2023-04-17T03:53:31.268Z,7.02
2023-04-17T03:54:31.285Z,7.03
2023-04-17T03:55:31.185Z,7.02
2023-04-17T03:56:31.160Z,6.93
2023-04-17T03:57:31.181Z,6.99
2023-04-17T03:58:31.118Z,7.02
2023-04-17T03:59:31.046Z,7.00
2023-04-17T04:00:31.064Z,7.02
2023-04-17T04:01:30.972Z,7.06
2023-04-17T04:02:31.018Z,7.02
2023-04-17T04:03:31.139Z,7.03
2023-04-17T04:04:31.041Z,7.03
2023-04-17T04:05:30.829Z,6.97
2023-04-17T04:06:30.844Z,7.00
2023-04-17T04:07:30.746Z,7.00
2023-04-17T04:08:30.788Z,7.03
2023-04-17T04:09:30.676Z,7.07
2023-04-17T04:10:30.654Z,7.05
2023-04-17T04:11:30.609Z,7.03
2023-04-17T04:12:30.572Z,7.05
2023-04-17T04:13:30.546Z,7.07
2023-04-17T04:14:30.580Z,7.03
2023-04-17T04:15:30.482Z,7.02
2023-04-17T04:16:30.572Z,7.05
2023-04-17T04:17:30.464Z,7.05
2023-04-17T04:18:30.354Z,7.05
2023-04-17T04:19:30.320Z,7.11
2023-04-17T04:20:30.351Z,7.03
2023-04-17T04:21:30.242Z,7.02
2023-04-17T04:22:30.208Z,7.03
2023-04-17T04:23:30.347Z,7.00
2023-04-17T04:24:30.142Z,7.00
2023-04-17T04:25:30.227Z,7.03
2023-04-17T04:26:30.459Z,7.00
2023-04-17T04:27:30.141Z,6.99
2023-04-17T04:28:30.006Z,6.99
2023-04-17T04:29:29.961Z,7.03
2023-04-17T04:30:29.927Z,6.99
2023-04-17T04:31:29.973Z,6.97
2023-04-17T04:32:29.942Z,7.05
2023-04-17T04:33:29.849Z,6.95
2023-04-17T04:34:29.822Z,6.97
2023-04-17T04:35:29.748Z,7.03
2023-04-17T04:36:29.719Z,6.93
2023-04-17T04:37:29.690Z,6.96
2023-04-17T04:38:29.702Z,6.89
2023-04-17T04:39:29.658Z,6.87
2023-04-17T04:40:29.568Z,6.87
2023-04-17T04:41:29.537Z,6.89
2023-04-17T04:42:29.499Z,6.95
2023-04-17T04:43:29.466Z,6.93
2023-04-17T04:44:29.503Z,6.93
2023-04-17T04:45:29.394Z,6.81
2023-04-17T04:46:29.388Z,6.92
2023-04-17T04:47:29.332Z,6.87
2023-04-17T04:48:29.285Z,6.84
2023-04-17T04:49:29.247Z,6.92
2023-04-17T04:50:29.269Z,6.82
2023-04-17T04:51:29.184Z,6.82
2023-04-17T04:52:29.150Z,6.82
2023-04-17T04:53:29.103Z,6.81
2023-04-17T04:54:29.067Z,6.89
2023-04-17T04:55:29.118Z,6.82
2023-04-17T04:56:31.033Z,6.84
2023-04-17T04:57:28.962Z,6.82
2023-04-17T04:58:28.919Z,6.85
2023-04-17T04:59:28.890Z,6.89
2023-04-17T05:00:28.979Z,6.89
2023-04-17T05:01:28.913Z,6.85
2023-04-17T05:02:28.929Z,6.89
2023-04-17T05:03:28.887Z,6.89
2023-04-17T05:04:28.829Z,6.89
2023-04-17T05:05:28.862Z,6.99
2023-04-17T05:06:28.709Z,6.95
2023-04-17T05:07:28.629Z,6.88
2023-04-17T05:08:28.590Z,7.02
2023-04-17T05:09:28.563Z,7.02
2023-04-17T05:10:28.501Z,7.10
2023-04-17T05:11:28.509Z,7.10
2023-04-17T05:12:28.429Z,7.10
2023-04-17T05:13:28.387Z,7.10
2023-04-17T05:14:28.367Z,7.11
2023-04-17T05:15:28.327Z,7.20
2023-04-17T05:16:28.374Z,7.28
2023-04-17T05:17:28.335Z,7.24
2023-04-17T05:18:28.217Z,7.29
2023-04-17T05:19:28.179Z,7.31
2023-04-17T05:20:28.146Z,7.29
2023-04-17T05:21:30.539Z,7.21
2023-04-17T05:22:28.133Z,7.29
2023-04-17T05:23:28.038Z,7.25
2023-04-17T05:24:28.008Z,7.31
2023-04-17T05:25:27.968Z,7.33
2023-04-17T05:26:27.938Z,7.47
2023-04-17T05:27:27.900Z,7.35
2023-04-17T05:28:27.927Z,7.45
2023-04-17T05:29:27.823Z,7.45
2023-04-17T05:30:27.815Z,7.45
2023-04-17T05:31:27.790Z,7.47
2023-04-17T05:32:27.766Z,7.40
2023-04-17T05:33:27.751Z,7.40
2023-04-17T05:34:27.662Z,7.45
2023-04-17T05:35:27.627Z,7.45
2023-04-17T05:36:27.578Z,7.54
2023-04-17T05:37:27.550Z,7.57
2023-04-17T05:38:27.521Z,7.53
2023-04-17T05:44:07.816Z,7.80
2023-04-17T05:45:02.603Z,7.72
2023-04-17T05:46:02.582Z,7.66
2023-04-17T05:47:02.510Z,7.72
2023-04-17T05:48:02.532Z,7.75
2023-04-17T05:49:02.505Z,7.69
2023-04-17T05:50:02.406Z,7.66
2023-04-17T05:51:02.396Z,7.67
2023-04-17T05:52:02.340Z,7.75
2023-04-17T05:53:02.301Z,7.79
2023-04-17T05:54:02.272Z,7.76
2023-04-17T05:55:02.285Z,7.83
2023-04-17T05:56:02.199Z,7.80
2023-04-17T05:57:02.159Z,7.77
2023-04-17T05:58:10.466Z,7.77
2023-04-17T05:59:02.128Z,7.77
2023-04-17T06:00:02.168Z,7.77
2023-04-17T06:01:02.033Z,7.73
2023-04-17T06:02:02.168Z,7.73
2023-04-17T06:03:02.230Z,7.75
2023-04-17T06:04:02.361Z,7.91
2023-04-17T06:05:02.117Z,7.87
2023-04-17T06:06:02.134Z,7.77
2023-04-17T06:07:01.867Z,7.77
2023-04-17T06:08:01.927Z,7.88
2023-04-17T06:09:01.746Z,8.05
2023-04-17T06:10:01.709Z,7.98
2023-04-17T06:11:01.694Z,8.06
2023-04-17T06:12:01.689Z,8.08
2023-04-17T06:13:01.608Z,8.09
2023-04-17T06:14:01.672Z,8.09
2023-04-17T06:15:01.540Z,8.06
2023-04-17T06:16:01.516Z,8.09
2023-04-17T06:17:01.508Z,8.06
2023-04-17T06:18:01.588Z,8.13
2023-04-17T06:19:01.393Z,8.12
2023-04-17T06:20:01.364Z,8.06
2023-04-17T06:21:01.339Z,8.09
2023-04-17T06:22:01.287Z,8.10
2023-04-17T06:23:01.260Z,8.16
2023-04-17T06:24:01.284Z,8.31
2023-04-17T06:25:01.184Z,8.42
2023-04-17T06:26:01.156Z,8.56
2023-04-17T06:27:01.124Z,8.51
2023-04-17T06:28:01.081Z,8.55
2023-04-17T06:29:01.151Z,8.63
2023-04-17T06:30:01.028Z,8.66
2023-04-17T06:31:01.072Z,8.63
2023-04-17T06:32:00.958Z,8.58
2023-04-17T06:33:00.952Z,8.66
2023-04-17T06:34:00.933Z,8.66
2023-04-17T06:35:00.846Z,8.63
2023-04-17T06:36:00.820Z,8.66
2023-04-17T06:37:00.805Z,8.79
2023-04-17T06:38:00.747Z,8.76
2023-04-17T06:39:00.707Z,8.60
2023-04-17T06:40:00.735Z,8.70
2023-04-17T06:41:00.649Z,8.74
2023-04-17T06:42:00.610Z,8.88
2023-04-17T06:43:00.582Z,8.91
2023-04-17T06:44:00.534Z,9.02
2023-04-17T06:45:00.523Z,9.02
2023-04-17T06:46:00.524Z,8.92
2023-04-17T06:47:02.782Z,9.02
2023-04-17T06:48:00.471Z,9.00
2023-04-17T06:49:00.370Z,9.04
2023-04-17T06:50:00.337Z,9.10
2023-04-17T06:51:00.290Z,9.22
2023-04-17T06:52:00.322Z,9.29
2023-04-17T06:53:00.243Z,9.47
2023-04-17T06:54:00.205Z,9.44
2023-04-17T06:55:00.218Z,9.56
2023-04-17T06:56:00.145Z,9.64
2023-04-17T06:57:00.104Z,9.65
2023-04-17T06:58:00.157Z,9.55
2023-04-17T06:59:01.804Z,9.59
2023-04-17T07:00:00.002Z,9.54
2023-04-17T07:01:00.037Z,9.59
2023-04-17T07:01:59.981Z,9.56
2023-04-17T07:03:00.009Z,9.44
2023-04-17T07:03:59.965Z,9.29
2023-04-17T07:04:59.904Z,9.21
2023-04-17T07:05:59.804Z,9.14
2023-04-17T07:06:59.810Z,9.03
2023-04-17T07:07:59.723Z,9.02
2023-04-17T07:08:59.691Z,9.03
2023-04-17T07:09:59.654Z,8.92
2023-04-17T07:10:59.636Z,8.94
2023-04-17T07:11:59.670Z,8.95
2023-04-17T07:12:59.564Z,8.88
2023-04-17T07:13:59.521Z,8.91
2023-04-17T07:14:59.515Z,8.85
2023-04-17T07:15:59.565Z,8.88
2023-04-17T07:16:59.491Z,8.91
2023-04-17T07:17:59.428Z,8.82
2023-04-17T07:18:59.366Z,8.92
2023-04-17T07:19:59.337Z,8.97
2023-04-17T07:20:59.301Z,9.02
2023-04-17T07:21:59.252Z,9.04
2023-04-17T07:22:59.274Z,9.02
2023-04-17T07:23:59.182Z,9.00
2023-04-17T07:24:59.183Z,9.02
2023-04-17T07:25:59.166Z,8.97
2023-04-17T07:26:59.245Z,8.95
2023-04-17T07:27:59.119Z,9.06
2023-04-17T07:28:59.026Z,9.18
2023-04-17T07:29:58.983Z,9.28
2023-04-17T07:30:58.953Z,9.32
2023-04-17T07:31:58.974Z,9.41
2023-04-17T07:32:58.926Z,9.40
2023-04-17T07:33:58.908Z,9.59
2023-04-17T07:34:58.822Z,9.74
2023-04-17T07:35:58.771Z,9.86
2023-04-17T07:36:58.769Z,9.97
2023-04-17T07:37:58.712Z,9.99
2023-04-17T07:38:58.740Z,10.13
2023-04-17T07:39:58.669Z,10.15
2023-04-17T07:40:58.618Z,10.17
2023-04-17T07:41:58.595Z,10.19
2023-04-17T07:42:58.667Z,10.17
2023-04-17T07:43:59.190Z,10.07
2023-04-17T07:44:58.478Z,10.05
2023-04-17T07:45:58.452Z,9.92
2023-04-17T07:46:58.431Z,9.89
2023-04-17T07:47:58.418Z,9.84
2023-04-17T07:48:58.404Z,9.82
2023-04-17T07:49:58.311Z,9.76
2023-04-17T07:50:58.288Z,9.84
2023-04-17T07:51:58.242Z,9.87
2023-04-17T07:52:58.220Z,9.95
2023-04-17T07:53:58.191Z,9.87
2023-04-17T07:54:58.207Z,9.99
2023-04-17T07:55:58.111Z,9.99
2023-04-17T07:56:58.096Z,10.01
2023-04-17T07:57:58.049Z,10.09
2023-04-17T07:58:58.008Z,10.20
2023-04-17T07:59:57.977Z,10.17
2023-04-17T08:00:58.010Z,10.20
2023-04-17T08:01:58.204Z,10.01
2023-04-17T08:02:58.071Z,9.73
2023-04-17T08:03:58.169Z,9.61
2023-04-17T08:04:57.902Z,9.68
2023-04-17T08:05:57.776Z,9.64
2023-04-17T08:06:57.812Z,9.89
2023-04-17T08:07:57.708Z,9.94
2023-04-17T08:08:57.672Z,9.98
2023-04-17T08:09:57.637Z,10.09
2023-04-17T08:10:57.614Z,10.07
2023-04-17T08:11:58.326Z,9.99
2023-04-17T08:12:57.615Z,10.05
2023-04-17T08:13:57.515Z,9.99
2023-04-17T08:14:57.496Z,10.15
2023-04-17T08:15:57.440Z,10.20
2023-04-17T08:16:57.428Z,10.22
2023-04-17T08:17:57.404Z,10.28
2023-04-17T08:18:57.398Z,10.33
2023-04-17T08:19:57.309Z,10.33
2023-04-17T08:20:57.280Z,10.30
2023-04-17T08:21:57.247Z,10.34
2023-04-17T08:22:57.257Z,10.44
2023-04-17T08:23:57.248Z,10.44
2023-04-17T08:24:57.166Z,10.53
2023-04-17T08:25:57.120Z,10.54
2023-04-17T08:26:57.088Z,10.56
2023-04-17T08:27:57.049Z,10.57
2023-04-17T08:28:57.022Z,10.56
2023-04-17T08:29:57.191Z,10.54
2023-04-17T08:30:57.206Z,10.51
2023-04-17T08:32:12.810Z,10.69
2023-04-17T08:32:56.918Z,10.79
2023-04-17T08:34:10.514Z,10.96
2023-04-17T08:34:56.879Z,11.02
2023-04-17T08:35:56.841Z,11.26
2023-04-17T08:36:56.756Z,11.23
2023-04-17T08:37:56.722Z,11.48
2023-04-17T08:38:56.688Z,11.35
2023-04-17T08:39:56.715Z,11.36
2023-04-17T08:40:56.620Z,11.35
2023-04-17T08:41:56.621Z,11.51
2023-04-17T08:42:56.567Z,11.51
2023-04-17T08:43:56.528Z,11.48
2023-04-17T08:44:56.495Z,11.45
2023-04-17T08:45:56.587Z,11.40
2023-04-17T08:46:56.433Z,11.43
2023-04-17T08:47:56.422Z,11.37
2023-04-17T08:48:56.364Z,11.30
2023-04-17T08:49:56.327Z,11.33
2023-04-17T08:50:56.327Z,11.35
2023-04-17T08:51:56.348Z,11.44
2023-04-17T08:52:56.239Z,11.50
2023-04-17T08:53:56.210Z,11.52
2023-04-17T08:54:56.174Z,11.44
2023-04-17T08:55:56.139Z,11.44
2023-04-17T08:56:56.115Z,11.47
2023-04-17T08:57:56.141Z,11.63
2023-04-17T08:58:56.044Z,11.62
2023-04-17T08:59:56.039Z,11.77
2023-04-17T09:00:55.994Z,11.80
2023-04-17T09:01:56.041Z,11.69
2023-04-17T09:02:56.103Z,11.66
2023-04-17T09:03:56.115Z,11.57
2023-04-17T09:04:55.908Z,11.62
2023-04-17T09:05:55.840Z,11.66
2023-04-17T09:06:55.780Z,11.83
2023-04-17T09:07:55.764Z,11.99
2023-04-17T09:08:55.729Z,12.17
2023-04-17T09:09:55.786Z,12.07
2023-04-17T09:10:55.665Z,12.13
2023-04-17T09:11:55.620Z,12.09
2023-04-17T09:12:55.597Z,12.13
2023-04-17T09:13:55.573Z,12.20
2023-04-17T09:14:55.536Z,12.29
2023-04-17T09:15:55.609Z,12.57
2023-04-17T09:16:55.468Z,12.85
2023-04-17T09:17:55.479Z,13.03
2023-04-17T09:18:55.417Z,13.20
2023-04-17T09:19:55.377Z,13.23
2023-04-17T09:20:55.351Z,13.04
2023-04-17T09:21:55.383Z,13.12
2023-04-17T09:22:55.302Z,13.05
2023-04-17T09:23:55.260Z,13.13
2023-04-17T09:24:56.781Z,13.16
2023-04-17T09:25:55.199Z,13.47
2023-04-17T09:26:55.174Z,13.62
2023-04-17T09:27:55.248Z,13.70
2023-04-17T09:28:55.110Z,13.90
2023-04-17T09:29:55.135Z,14.11
2023-04-17T09:30:55.057Z,14.18
2023-04-17T09:31:55.063Z,13.93
2023-04-17T09:32:55.082Z,13.75
2023-04-17T09:33:54.951Z,13.93
2023-04-17T09:34:55.002Z,13.70
2023-04-17T09:35:54.894Z,13.71
2023-04-17T09:36:54.864Z,13.50
2023-04-17T09:37:54.852Z,13.25
2023-04-17T09:38:54.802Z,13.23
2023-04-17T09:39:54.839Z,13.16
2023-04-17T09:40:54.738Z,13.23
2023-04-17T09:41:54.716Z,13.39
2023-04-17T09:42:54.675Z,13.62
2023-04-17T09:43:54.648Z,13.53
2023-04-17T09:44:54.699Z,13.46
2023-04-17T09:45:54.587Z,13.37
2023-04-17T09:46:54.677Z,13.28
2023-04-17T09:47:54.557Z,13.25
2023-04-17T09:48:54.498Z,13.04
2023-04-17T09:49:54.521Z,12.93
2023-04-17T09:50:54.435Z,12.80
2023-04-17T09:51:54.415Z,12.67
2023-04-17T09:52:54.373Z,12.55
2023-04-17T09:53:54.340Z,12.47
2023-04-17T09:54:54.370Z,12.43
2023-04-17T09:55:54.290Z,12.42
2023-04-17T09:56:54.249Z,12.25
2023-04-17T09:57:54.212Z,12.09
2023-04-17T09:58:54.187Z,12.24
2023-04-17T09:59:54.145Z,12.20
2023-04-17T10:00:54.195Z,12.22
2023-04-17T10:01:54.173Z,12.39
2023-04-17T10:02:54.166Z,12.40
2023-04-17T10:03:54.187Z,12.27
2023-04-17T10:04:53.986Z,12.28
2023-04-17T10:05:53.961Z,12.29
2023-04-17T10:06:54.059Z,12.28
2023-04-17T10:07:53.893Z,12.31
2023-04-17T10:08:54.702Z,12.25
2023-04-17T10:09:53.840Z,12.13
2023-04-17T10:10:53.800Z,12.18
2023-04-17T10:11:53.839Z,11.94
2023-04-17T10:12:53.728Z,11.97
2023-04-17T10:13:53.710Z,12.07
2023-04-17T10:14:53.694Z,12.12
2023-04-17T10:15:53.650Z,12.18
2023-04-17T10:16:53.735Z,12.25
2023-04-17T10:17:53.612Z,12.43
2023-04-17T10:18:53.553Z,12.46
2023-04-17T10:19:53.519Z,12.49
2023-04-17T10:20:53.818Z,12.58
2023-04-17T10:21:53.498Z,12.68
2023-04-17T10:22:53.405Z,12.91
2023-04-17T10:23:53.385Z,12.93
2023-04-17T10:24:53.364Z,13.00
2023-04-17T10:25:53.311Z,13.09
2023-04-17T10:26:53.288Z,13.20
2023-04-17T10:27:53.322Z,12.93
2023-04-17T10:28:53.231Z,12.93
2023-04-17T10:29:53.188Z,12.90
2023-04-17T10:30:53.166Z,12.93
2023-04-17T10:31:53.192Z,13.01
2023-04-17T10:32:53.164Z,13.13
2023-04-17T10:33:53.127Z,13.28
2023-04-17T10:34:53.039Z,13.38
2023-04-17T10:35:53.007Z,13.47
2023-04-17T10:36:52.968Z,13.44
2023-04-17T10:37:54.312Z,13.46
2023-04-17T10:38:52.909Z,13.44
2023-04-17T10:39:52.886Z,13.49
2023-04-17T10:40:52.858Z,13.49
2023-04-17T10:41:52.814Z,13.56
2023-04-17T10:42:52.836Z,13.63
2023-04-17T10:43:52.764Z,13.63
2023-04-17T10:44:52.717Z,13.63
2023-04-17T10:45:52.732Z,13.46
2023-04-17T10:46:52.654Z,13.35
2023-04-17T10:47:52.739Z,13.23
2023-04-17T10:48:52.985Z,13.12
2023-04-17T10:49:52.567Z,13.16
2023-04-17T10:50:52.522Z,13.12
2023-04-17T10:51:52.530Z,13.25
2023-04-17T10:52:52.485Z,13.23
2023-04-17T10:53:52.487Z,13.22
2023-04-17T10:54:52.398Z,13.04
2023-04-17T10:55:52.400Z,12.93
2023-04-17T10:56:52.347Z,12.87
2023-04-17T10:57:52.323Z,12.90
2023-04-17T10:58:52.277Z,13.03
2023-04-17T10:59:52.314Z,13.23
2023-04-17T11:00:52.377Z,13.52
2023-04-17T11:01:52.261Z,13.74
2023-04-17T11:02:52.218Z,13.96
2023-04-17T11:03:52.124Z,14.18
2023-04-17T11:04:52.145Z,14.18
2023-04-17T11:05:52.116Z,14.07
2023-04-17T11:06:52.028Z,13.99
2023-04-17T11:07:52.003Z,13.92
2023-04-17T11:08:51.982Z,13.92
2023-04-17T11:09:51.935Z,13.87
2023-04-17T11:10:52.009Z,13.89
2023-04-17T11:11:51.932Z,13.74
2023-04-17T11:12:51.857Z,13.63
2023-04-17T11:13:52.163Z,13.28
2023-04-17T11:14:52.232Z,13.19
2023-04-17T11:15:52.303Z,13.13
2023-04-17T11:16:51.904Z,13.05
2023-04-17T11:17:51.701Z,13.11
2023-04-17T11:18:51.678Z,13.19
2023-04-17T11:19:51.630Z,13.27
2023-04-17T11:20:51.848Z,13.28
2023-04-17T11:21:51.691Z,13.30
2023-04-17T11:22:51.660Z,13.37
2023-04-17T11:23:51.515Z,13.28
2023-04-17T11:24:51.470Z,13.38
2023-04-17T11:25:51.507Z,13.44
2023-04-17T11:26:51.411Z,13.42
2023-04-17T11:27:51.393Z,13.44
2023-04-17T11:28:51.397Z,13.62
2023-04-17T11:29:51.319Z,13.65
2023-04-17T11:30:51.317Z,13.65
2023-04-17T11:31:51.327Z,13.78
2023-04-17T11:32:51.271Z,13.72
2023-04-17T11:33:51.188Z,13.95
2023-04-17T11:34:51.209Z,14.12
2023-04-17T11:35:51.132Z,14.17
2023-04-17T11:36:51.149Z,14.29
2023-04-17T11:37:51.124Z,14.23
2023-04-17T11:38:51.051Z,14.25
2023-04-17T11:39:51.001Z,14.29
2023-04-17T11:40:50.975Z,14.32
2023-04-17T11:41:50.966Z,14.25
2023-04-17T11:42:50.982Z,14.37
2023-04-17T11:43:50.904Z,14.63
2023-04-17T11:44:50.846Z,14.69
2023-04-17T11:45:50.886Z,14.82
2023-04-17T11:46:50.797Z,15.02
2023-04-17T11:47:50.872Z,14.92
2023-04-17T11:48:50.732Z,14.99
2023-04-17T11:49:50.694Z,14.84
2023-04-17T11:50:50.676Z,14.68
2023-04-17T11:51:50.652Z,14.81
2023-04-17T11:52:50.625Z,14.60
2023-04-17T11:53:50.620Z,14.43
2023-04-17T11:54:50.544Z,14.40
2023-04-17T11:55:50.512Z,14.32
2023-04-17T11:56:50.488Z,14.28
2023-04-17T11:57:50.449Z,14.10
2023-04-17T11:58:50.425Z,13.97
2023-04-17T11:59:50.470Z,13.87
2023-04-17T12:00:50.366Z,13.93
2023-04-17T12:01:50.355Z,14.03
2023-04-17T12:02:50.491Z,14.08
2023-04-17T12:03:50.490Z,14.12
2023-04-17T12:04:50.322Z,14.08
2023-04-17T12:05:50.373Z,14.15
2023-04-17T12:06:50.189Z,14.29
2023-04-17T12:07:50.168Z,14.68
2023-04-17T12:08:50.147Z,15.04
2023-04-17T12:09:50.088Z,15.04
2023-04-17T12:10:50.048Z,15.02
2023-04-17T12:11:50.102Z,15.00
2023-04-17T12:12:49.997Z,14.89
2023-04-17T12:13:49.984Z,15.02
2023-04-17T12:14:49.936Z,15.07
2023-04-17T12:15:49.950Z,15.09
2023-04-17T12:16:50.121Z,14.79
2023-04-17T12:17:49.921Z,14.63
2023-04-17T12:18:49.811Z,14.45
2023-04-17T12:19:49.790Z,14.45
2023-04-17T12:20:49.756Z,14.30
2023-04-17T12:21:49.723Z,14.15
2023-04-17T12:22:49.698Z,14.29
2023-04-17T12:23:49.728Z,14.26
2023-04-17T12:24:49.649Z,14.18
2023-04-17T12:25:49.596Z,14.00
2023-04-17T12:26:49.575Z,13.93
2023-04-17T12:27:49.562Z,13.81
2023-04-17T12:28:49.514Z,13.83
2023-04-17T12:29:49.550Z,13.77
2023-04-17T12:30:49.465Z,13.89
2023-04-17T12:31:49.506Z,13.86
2023-04-17T12:32:49.423Z,13.63
2023-04-17T12:33:49.356Z,13.39
2023-04-17T12:34:49.327Z,13.37
2023-04-17T12:35:49.391Z,13.13
2023-04-17T12:36:49.270Z,13.25
2023-04-17T12:37:49.227Z,13.27
2023-04-17T12:38:49.219Z,13.22
2023-04-17T12:39:49.174Z,13.18
2023-04-17T12:40:49.216Z,13.41
2023-04-17T12:41:49.181Z,13.53
2023-04-17T12:42:49.864Z,13.28
2023-04-17T12:43:49.058Z,13.37
2023-04-17T12:44:49.035Z,13.19
2023-04-17T12:45:49.054Z,13.22
2023-04-17T12:46:49.033Z,13.31
2023-04-17T12:47:48.938Z,13.33
2023-04-17T12:48:48.903Z,13.30
2023-04-17T12:49:58.406Z,13.37
2023-04-17T12:50:48.845Z,13.30
2023-04-17T12:51:48.873Z,13.28
2023-04-17T12:52:48.825Z,13.38
2023-04-17T12:53:48.816Z,13.30
2023-04-17T12:54:48.708Z,13.42
2023-04-17T12:55:49.404Z,13.46
2023-04-17T12:56:48.642Z,13.41
2023-04-17T12:57:48.672Z,13.44
2023-04-17T12:58:48.581Z,13.57
2023-04-17T12:59:48.631Z,13.63
2023-04-17T13:00:48.537Z,13.62
2023-04-17T13:01:48.566Z,13.63
2023-04-17T13:02:48.610Z,13.60
2023-04-17T13:03:48.586Z,13.67
2023-04-17T13:04:49.278Z,13.56
2023-04-17T13:05:48.434Z,13.44
2023-04-17T13:06:48.343Z,13.35
2023-04-17T13:07:48.305Z,13.33
2023-04-17T13:08:48.282Z,13.33
2023-04-17T13:09:48.252Z,13.42
2023-04-17T13:10:48.283Z,13.41
2023-04-17T13:11:48.193Z,13.44